UPSVAC Airport Information Service

Columbia Metropolitan Airport (1200-1299)

ICAO: KCAE Country: United States
Latitude: 33.9388 Longitude: -81.1195
Latest Arrival : UPS2944 (KPHL-KCAE) Latest Departure : UPS2904 (KCAE-KPHL)


WX CaptureLIVE
Data provided by noaa.gov | Fetched at 23:49:25

METAR : KCAE 112256Z 02005KT 10SM BKN100 24/16 A3002 RMK AO2 SLP164 T02440156

TAF : KCAE 112050Z 1121/1218 VRB04KT P6SM VCSH SCT040 BKN100 FM120000 VRB04KT P6SM BKN080 FM120700 VRB03KT 4SM RA BR OVC015 FM121000 04006KT P6SM -RA OVC007


Runway Data for KCAE
Data provided by openaviationdata.com

Runway ID Mag Var Hdg Length Elevation Surface ILS Freq ILS Id ILS Slope
5 -5 49° 8003 ft 236 ft Asphalt 108.95 IGJC 3
11 -5 109° 8592 ft 236 ft Asphalt 110.3 ICAE 3
23 -5 229° 8003 ft 236 ft Asphalt -- -- --
29 -5 289° 8592 ft 236 ft Asphalt 108.3 IVYK 3

Columbia Metropolitan Airport (1200-1299), United States
Use only for reference purposes



Not for navigational purposes.